Green Lake, Texas
Current Conditions -  °F | °C
As of 10:55 PM on Sunday 21 Dec 2014 (Local Time) from KPKV Reporting Station
Overcast Overcast  
Wind Chill: 60°   Ceiling: 3400
Heat Index: 60°   Visibility: 7mi
Dew Point: 59°   Wind: 6mph
Humidity: 96%   Direction: 140°SE
Pressure: 29.88"   Gusts: NA
Location:  28.5342°N, 96.663°W
Report Text: KPKV 220455Z AUTO 14005KT 7SM OVC034 16/15 A2988 RMK AO2 T01560150
Loading
Personal Weather Stations






























Interactive Weather Map New forecast layout! Learn more

10-Day Weather Forecast

Advertisements
Track Severe Weather on mobile